Terminal Aerodrome Forecast
Issued by NWS

Home | Current Version | Previous Version | Graphics & Text | Print | Product List | Glossary On
Versions: 1 2 3 4 5 6 7 8 9 10 11 12 13 14 15 16 17 18 19 20 21 22
534
FTUS43 KBIS 300533
TAFJMS
TAF
KJMS 300533Z 3006/0106 33017G25KT P6SM SCT008 OVC012
     FM301100 34014G19KT P6SM -SHSN BKN008 OVC012
     FM301800 34015KT P6SM -SHSN SCT008 OVC011
     FM302200 34015KT P6SM -SHSN OVC015
     FM010000 34014KT P6SM OVC011=

USA.gov is the U.S. government's official web portal to all federal, state and local government web resources and services.